Smyrna, Michigan
Current Conditions -  °F | °C
As of 5:13 PM on Monday 20 Oct 2014 (Local Time) from KY70 Reporting Station
Overcast Overcast  
Wind Chill: 59°   Ceiling: 6000
Heat Index: 59°   Visibility: 10mi
Dew Point: 48°   Wind: 14mph
Humidity: 67%   Direction: 350°N
Pressure: 29.79"   Gusts: 18mph
Location:  43.06°N, 85.26°W
Report Text: KY70 202113Z AUTO 35012G16KT 10SM SCT028 OVC060 15/09 A2979 RMK AO2 T01480087
Loading
Personal Weather Stations






























Interactive Weather Map
Tropical Storm Tracking
New forecast layout! Learn more

10-Day Weather Forecast

Advertisements
Track Severe Weather on mobile